sensor_id;sensor_type;location;lat;lon;timestamp;P1;durP1;ratioP1;P2;durP2;ratioP2
22068;SDS011;13887;57.196;-2.100;2022-10-04T00:01:43;12.40;;;12.00;;
22068;SDS011;13887;57.196;-2.100;2022-10-04T00:12:34;11.93;;;11.53;;
22068;SDS011;13887;57.196;-2.100;2022-10-04T00:25:51;11.93;;;11.53;;
22068;SDS011;13887;57.196;-2.100;2022-10-04T00:31:08;11.90;;;11.50;;
22068;SDS011;13887;57.196;-2.100;2022-10-04T00:41:37;11.70;;;11.30;;
22068;SDS011;13887;57.196;-2.100;2022-10-04T00:44:37;12.00;;;11.60;;
22068;SDS011;13887;57.196;-2.100;2022-10-04T00:47:16;11.90;;;11.50;;
22068;SDS011;13887;57.196;-2.100;2022-10-04T00:49:53;12.00;;;11.60;;
22068;SDS011;13887;57.196;-2.100;2022-10-04T00:52:30;11.77;;;11.37;;
22068;SDS011;13887;57.196;-2.100;2022-10-04T00:55:04;12.00;;;11.60;;
22068;SDS011;13887;57.196;-2.100;2022-10-04T00:57:38;11.80;;;11.40;;
22068;SDS011;13887;57.196;-2.100;2022-10-04T01:00:11;11.67;;;11.27;;
22068;SDS011;13887;57.196;-2.100;2022-10-04T01:05:09;11.80;;;11.40;;
22068;SDS011;13887;57.196;-2.100;2022-10-04T01:07:43;11.80;;;11.40;;
22068;SDS011;13887;57.196;-2.100;2022-10-04T01:13:20;11.70;;;11.30;;
22068;SDS011;13887;57.196;-2.100;2022-10-04T01:15:58;11.50;;;11.10;;
22068;SDS011;13887;57.196;-2.100;2022-10-04T01:18:30;11.93;;;11.53;;
22068;SDS011;13887;57.196;-2.100;2022-10-04T01:21:41;11.17;;;10.87;;
22068;SDS011;13887;57.196;-2.100;2022-10-04T01:28:57;11.63;;;11.23;;
22068;SDS011;13887;57.196;-2.100;2022-10-04T01:31:28;11.33;;;10.97;;
22068;SDS011;13887;57.196;-2.100;2022-10-04T01:33:58;11.53;;;11.13;;
22068;SDS011;13887;57.196;-2.100;2022-10-04T01:36:26;11.87;;;11.47;;
22068;SDS011;13887;57.196;-2.100;2022-10-04T01:38:54;11.80;;;11.40;;
22068;SDS011;13887;57.196;-2.100;2022-10-04T01:44:08;11.97;;;11.57;;
22068;SDS011;13887;57.196;-2.100;2022-10-04T01:46:38;11.97;;;11.57;;
22068;SDS011;13887;57.196;-2.100;2022-10-04T01:49:07;11.73;;;11.33;;
22068;SDS011;13887;57.196;-2.100;2022-10-04T01:52:00;11.60;;;11.20;;
22068;SDS011;13887;57.196;-2.100;2022-10-04T01:54:47;11.77;;;11.37;;
22068;SDS011;13887;57.196;-2.100;2022-10-04T01:57:48;11.67;;;11.27;;
22068;SDS011;13887;57.196;-2.100;2022-10-04T02:00:18;11.43;;;11.03;;
22068;SDS011;13887;57.196;-2.100;2022-10-04T02:05:25;11.77;;;11.37;;
22068;SDS011;13887;57.196;-2.100;2022-10-04T02:08:09;11.70;;;11.30;;
22068;SDS011;13887;57.196;-2.100;2022-10-04T02:10:38;11.87;;;11.47;;
22068;SDS011;13887;57.196;-2.100;2022-10-04T02:13:18;12.00;;;11.60;;
22068;SDS011;13887;57.196;-2.100;2022-10-04T02:15:46;12.00;;;11.60;;
22068;SDS011;13887;57.196;-2.100;2022-10-04T02:18:15;11.93;;;11.53;;
22068;SDS011;13887;57.196;-2.100;2022-10-04T02:20:46;11.60;;;11.20;;
22068;SDS011;13887;57.196;-2.100;2022-10-04T02:23:15;11.63;;;11.23;;
22068;SDS011;13887;57.196;-2.100;2022-10-04T02:25:45;11.90;;;11.50;;
22068;SDS011;13887;57.196;-2.100;2022-10-04T02:28:13;11.80;;;11.40;;
22068;SDS011;13887;57.196;-2.100;2022-10-04T02:30:42;12.00;;;11.60;;
22068;SDS011;13887;57.196;-2.100;2022-10-04T02:33:32;11.60;;;11.20;;
22068;SDS011;13887;57.196;-2.100;2022-10-04T02:36:08;11.67;;;11.27;;
22068;SDS011;13887;57.196;-2.100;2022-10-04T02:38:36;11.60;;;11.20;;
22068;SDS011;13887;57.196;-2.100;2022-10-04T02:41:15;11.43;;;11.03;;
22068;SDS011;13887;57.196;-2.100;2022-10-04T02:49:37;11.77;;;11.37;;
22068;SDS011;13887;57.196;-2.100;2022-10-04T02:52:08;11.37;;;10.97;;
22068;SDS011;13887;57.196;-2.100;2022-10-04T02:54:46;11.40;;;11.00;;
22068;SDS011;13887;57.196;-2.100;2022-10-04T02:57:19;11.47;;;11.07;;
22068;SDS011;13887;57.196;-2.100;2022-10-04T02:59:47;12.00;;;11.60;;
22068;SDS011;13887;57.196;-2.100;2022-10-04T03:02:20;11.77;;;11.37;;
22068;SDS011;13887;57.196;-2.100;2022-10-04T03:04:59;11.57;;;11.17;;
22068;SDS011;13887;57.196;-2.100;2022-10-04T03:07:31;11.70;;;11.30;;
22068;SDS011;13887;57.196;-2.100;2022-10-04T03:10:00;11.40;;;11.00;;
22068;SDS011;13887;57.196;-2.100;2022-10-04T03:12:32;11.70;;;11.30;;
22068;SDS011;13887;57.196;-2.100;2022-10-04T03:14:59;11.80;;;11.40;;
22068;SDS011;13887;57.196;-2.100;2022-10-04T03:17:26;11.27;;;10.93;;
22068;SDS011;13887;57.196;-2.100;2022-10-04T03:19:53;11.67;;;11.27;;
22068;SDS011;13887;57.196;-2.100;2022-10-04T03:22:21;11.50;;;11.10;;
22068;SDS011;13887;57.196;-2.100;2022-10-04T03:24:50;11.47;;;11.07;;
22068;SDS011;13887;57.196;-2.100;2022-10-04T03:27:24;11.60;;;11.20;;
22068;SDS011;13887;57.196;-2.100;2022-10-04T03:29:54;11.33;;;10.97;;
22068;SDS011;13887;57.196;-2.100;2022-10-04T03:32:25;11.50;;;11.10;;
22068;SDS011;13887;57.196;-2.100;2022-10-04T03:34:57;11.57;;;11.17;;
22068;SDS011;13887;57.196;-2.100;2022-10-04T03:37:26;11.60;;;11.20;;
22068;SDS011;13887;57.196;-2.100;2022-10-04T03:39:56;11.60;;;11.20;;
22068;SDS011;13887;57.196;-2.100;2022-10-04T03:42:27;11.93;;;11.53;;
22068;SDS011;13887;57.196;-2.100;2022-10-04T03:45:00;11.70;;;11.30;;
22068;SDS011;13887;57.196;-2.100;2022-10-04T03:47:38;11.37;;;11.03;;
22068;SDS011;13887;57.196;-2.100;2022-10-04T03:50:15;11.20;;;10.87;;
22068;SDS011;13887;57.196;-2.100;2022-10-04T03:52:51;11.97;;;11.57;;
22068;SDS011;13887;57.196;-2.100;2022-10-04T03:55:21;12.03;;;11.63;;
22068;SDS011;13887;57.196;-2.100;2022-10-04T03:57:51;11.97;;;11.57;;
22068;SDS011;13887;57.196;-2.100;2022-10-04T04:00:18;12.17;;;11.77;;
22068;SDS011;13887;57.196;-2.100;2022-10-04T04:02:53;12.00;;;11.60;;
22068;SDS011;13887;57.196;-2.100;2022-10-04T04:05:31;11.97;;;11.57;;
22068;SDS011;13887;57.196;-2.100;2022-10-04T04:10:57;11.53;;;11.13;;
22068;SDS011;13887;57.196;-2.100;2022-10-04T04:13:26;11.73;;;11.33;;
22068;SDS011;13887;57.196;-2.100;2022-10-04T04:15:58;11.80;;;11.40;;
22068;SDS011;13887;57.196;-2.100;2022-10-04T04:18:28;11.40;;;11.00;;
22068;SDS011;13887;57.196;-2.100;2022-10-04T04:21:00;11.73;;;11.33;;
22068;SDS011;13887;57.196;-2.100;2022-10-04T04:23:38;12.17;;;11.77;;
22068;SDS011;13887;57.196;-2.100;2022-10-04T04:34:29;12.13;;;11.73;;
22068;SDS011;13887;57.196;-2.100;2022-10-04T04:36:58;12.03;;;11.63;;
22068;SDS011;13887;57.196;-2.100;2022-10-04T04:39:30;12.20;;;11.80;;
22068;SDS011;13887;57.196;-2.100;2022-10-04T04:42:09;12.23;;;11.83;;
22068;SDS011;13887;57.196;-2.100;2022-10-04T04:44:55;12.03;;;11.63;;
22068;SDS011;13887;57.196;-2.100;2022-10-04T04:50:20;11.93;;;11.53;;
22068;SDS011;13887;57.196;-2.100;2022-10-04T04:53:08;12.23;;;11.83;;
22068;SDS011;13887;57.196;-2.100;2022-10-04T04:55:50;12.63;;;12.23;;
22068;SDS011;13887;57.196;-2.100;2022-10-04T04:58:31;12.50;;;12.10;;
22068;SDS011;13887;57.196;-2.100;2022-10-04T05:01:05;12.40;;;12.00;;
22068;SDS011;13887;57.196;-2.100;2022-10-04T05:03:33;12.60;;;12.20;;
22068;SDS011;13887;57.196;-2.100;2022-10-04T05:06:00;12.30;;;11.90;;
22068;SDS011;13887;57.196;-2.100;2022-10-04T05:08:31;12.67;;;12.27;;
22068;SDS011;13887;57.196;-2.100;2022-10-04T05:13:37;12.57;;;12.17;;
22068;SDS011;13887;57.196;-2.100;2022-10-04T05:16:23;12.90;;;12.50;;
22068;SDS011;13887;57.196;-2.100;2022-10-04T05:18:57;13.30;;;12.90;;
22068;SDS011;13887;57.196;-2.100;2022-10-04T05:21:31;13.17;;;12.77;;
22068;SDS011;13887;57.196;-2.100;2022-10-04T05:27:03;12.87;;;12.47;;
22068;SDS011;13887;57.196;-2.100;2022-10-04T05:29:36;12.60;;;12.20;;
22068;SDS011;13887;57.196;-2.100;2022-10-04T05:34:37;12.63;;;12.23;;
22068;SDS011;13887;57.196;-2.100;2022-10-04T05:37:18;13.10;;;12.70;;
22068;SDS011;13887;57.196;-2.100;2022-10-04T05:42:44;13.07;;;12.67;;
22068;SDS011;13887;57.196;-2.100;2022-10-04T05:45:13;13.00;;;12.60;;
22068;SDS011;13887;57.196;-2.100;2022-10-04T05:47:43;13.00;;;12.60;;
22068;SDS011;13887;57.196;-2.100;2022-10-04T06:12:27;12.80;;;12.40;;
22068;SDS011;13887;57.196;-2.100;2022-10-04T06:22:55;12.53;;;12.13;;
22068;SDS011;13887;57.196;-2.100;2022-10-04T06:25:45;12.47;;;12.07;;
22068;SDS011;13887;57.196;-2.100;2022-10-04T06:37:04;12.60;;;12.20;;
22068;SDS011;13887;57.196;-2.100;2022-10-04T06:40:03;12.83;;;12.43;;
22068;SDS011;13887;57.196;-2.100;2022-10-04T06:50:53;12.57;;;12.17;;
22068;SDS011;13887;57.196;-2.100;2022-10-04T07:02:05;12.57;;;12.17;;
22068;SDS011;13887;57.196;-2.100;2022-10-04T07:07:35;12.83;;;12.43;;
22068;SDS011;13887;57.196;-2.100;2022-10-04T07:18:27;12.40;;;12.00;;
22068;SDS011;13887;57.196;-2.100;2022-10-04T07:21:22;13.03;;;12.63;;
22068;SDS011;13887;57.196;-2.100;2022-10-04T07:23:57;13.03;;;12.63;;
22068;SDS011;13887;57.196;-2.100;2022-10-04T07:26:32;12.93;;;12.53;;
22068;SDS011;13887;57.196;-2.100;2022-10-04T07:29:02;12.83;;;12.43;;
22068;SDS011;13887;57.196;-2.100;2022-10-04T07:31:52;12.60;;;12.20;;
22068;SDS011;13887;57.196;-2.100;2022-10-04T07:37:12;12.70;;;12.30;;
22068;SDS011;13887;57.196;-2.100;2022-10-04T07:42:31;12.43;;;12.03;;
22068;SDS011;13887;57.196;-2.100;2022-10-04T07:48:14;12.90;;;12.50;;
22068;SDS011;13887;57.196;-2.100;2022-10-04T07:50:57;13.80;;;13.30;;
22068;SDS011;13887;57.196;-2.100;2022-10-04T07:56:31;12.73;;;12.33;;
22068;SDS011;13887;57.196;-2.100;2022-10-04T08:04:55;12.70;;;12.30;;
22068;SDS011;13887;57.196;-2.100;2022-10-04T08:10:02;13.23;;;12.83;;
22068;SDS011;13887;57.196;-2.100;2022-10-04T08:15:53;12.93;;;12.53;;
22068;SDS011;13887;57.196;-2.100;2022-10-04T08:21:25;13.30;;;12.90;;
22068;SDS011;13887;57.196;-2.100;2022-10-04T08:24:09;13.33;;;12.93;;
22068;SDS011;13887;57.196;-2.100;2022-10-04T08:43:09;13.13;;;12.73;;
22068;SDS011;13887;57.196;-2.100;2022-10-04T08:52:04;12.90;;;12.50;;
22068;SDS011;13887;57.196;-2.100;2022-10-04T09:03:44;13.07;;;12.67;;
22068;SDS011;13887;57.196;-2.100;2022-10-04T09:20:26;13.10;;;12.70;;
22068;SDS011;13887;57.196;-2.100;2022-10-04T09:23:11;13.40;;;13.00;;
22068;SDS011;13887;57.196;-2.100;2022-10-04T09:47:57;13.00;;;12.60;;
22068;SDS011;13887;57.196;-2.100;2022-10-04T09:53:35;13.00;;;12.60;;
22068;SDS011;13887;57.196;-2.100;2022-10-04T10:27:58;12.70;;;12.30;;
22068;SDS011;13887;57.196;-2.100;2022-10-04T10:38:58;12.40;;;12.00;;
22068;SDS011;13887;57.196;-2.100;2022-10-04T10:44:56;12.47;;;12.07;;
22068;SDS011;13887;57.196;-2.100;2022-10-04T10:47:52;12.83;;;12.43;;
22068;SDS011;13887;57.196;-2.100;2022-10-04T11:11:06;13.27;;;12.87;;
22068;SDS011;13887;57.196;-2.100;2022-10-04T11:14:01;12.47;;;12.07;;
22068;SDS011;13887;57.196;-2.100;2022-10-04T11:28:05;13.50;;;13.10;;
22068;SDS011;13887;57.196;-2.100;2022-10-04T11:46:55;13.60;;;13.10;;
22068;SDS011;13887;57.196;-2.100;2022-10-04T11:57:47;13.73;;;13.23;;
22068;SDS011;13887;57.196;-2.100;2022-10-04T12:00:57;13.87;;;13.37;;
22068;SDS011;13887;57.196;-2.100;2022-10-04T12:31:41;13.87;;;13.37;;
22068;SDS011;13887;57.196;-2.100;2022-10-04T12:37:08;13.80;;;13.30;;
22068;SDS011;13887;57.196;-2.100;2022-10-04T13:02:37;14.10;;;13.60;;
22068;SDS011;13887;57.196;-2.100;2022-10-04T13:05:33;14.20;;;13.70;;
22068;SDS011;13887;57.196;-2.100;2022-10-04T13:20:33;13.97;;;13.47;;
22068;SDS011;13887;57.196;-2.100;2022-10-04T13:23:06;14.40;;;13.90;;
22068;SDS011;13887;57.196;-2.100;2022-10-04T14:01:30;13.90;;;13.40;;
22068;SDS011;13887;57.196;-2.100;2022-10-04T14:09:50;14.10;;;13.60;;
22068;SDS011;13887;57.196;-2.100;2022-10-04T14:18:26;13.77;;;13.27;;
22068;SDS011;13887;57.196;-2.100;2022-10-04T14:29:19;13.40;;;12.97;;
22068;SDS011;13887;57.196;-2.100;2022-10-04T14:46:27;13.00;;;12.60;;
22068;SDS011;13887;57.196;-2.100;2022-10-04T14:54:11;13.03;;;12.63;;
22068;SDS011;13887;57.196;-2.100;2022-10-04T15:04:56;13.30;;;12.90;;
22068;SDS011;13887;57.196;-2.100;2022-10-04T15:07:44;13.10;;;12.70;;
22068;SDS011;13887;57.196;-2.100;2022-10-04T15:10:16;13.03;;;12.63;;
22068;SDS011;13887;57.196;-2.100;2022-10-04T15:13:07;13.30;;;12.90;;
22068;SDS011;13887;57.196;-2.100;2022-10-04T15:15:56;13.33;;;12.93;;
22068;SDS011;13887;57.196;-2.100;2022-10-04T15:29:26;13.10;;;12.70;;
22068;SDS011;13887;57.196;-2.100;2022-10-04T15:57:58;13.20;;;12.80;;
22068;SDS011;13887;57.196;-2.100;2022-10-04T16:03:38;12.77;;;12.37;;
22068;SDS011;13887;57.196;-2.100;2022-10-04T16:06:59;12.60;;;12.20;;
22068;SDS011;13887;57.196;-2.100;2022-10-04T16:15:10;12.37;;;11.97;;
22068;SDS011;13887;57.196;-2.100;2022-10-04T16:23:31;12.50;;;12.10;;
22068;SDS011;13887;57.196;-2.100;2022-10-04T16:26:07;12.67;;;12.27;;
22068;SDS011;13887;57.196;-2.100;2022-10-04T16:33:54;13.23;;;12.83;;
22068;SDS011;13887;57.196;-2.100;2022-10-04T16:36:24;12.87;;;12.47;;
22068;SDS011;13887;57.196;-2.100;2022-10-04T16:38:58;13.23;;;12.83;;
22068;SDS011;13887;57.196;-2.100;2022-10-04T16:41:45;12.90;;;12.50;;
22068;SDS011;13887;57.196;-2.100;2022-10-04T16:49:49;12.80;;;12.40;;
22068;SDS011;13887;57.196;-2.100;2022-10-04T17:04:13;13.20;;;12.80;;
22068;SDS011;13887;57.196;-2.100;2022-10-04T17:06:56;13.43;;;12.97;;
22068;SDS011;13887;57.196;-2.100;2022-10-04T17:09:29;13.20;;;12.80;;
22068;SDS011;13887;57.196;-2.100;2022-10-04T17:15:24;12.60;;;12.20;;
22068;SDS011;13887;57.196;-2.100;2022-10-04T17:20:59;13.00;;;12.60;;
22068;SDS011;13887;57.196;-2.100;2022-10-04T17:32:26;12.67;;;12.27;;
22068;SDS011;13887;57.196;-2.100;2022-10-04T17:38:29;12.77;;;12.37;;
22068;SDS011;13887;57.196;-2.100;2022-10-04T17:50:21;13.07;;;12.67;;
22068;SDS011;13887;57.196;-2.100;2022-10-04T17:53:22;13.20;;;12.80;;
22068;SDS011;13887;57.196;-2.100;2022-10-04T17:56:11;12.60;;;12.20;;
22068;SDS011;13887;57.196;-2.100;2022-10-04T17:58:52;12.67;;;12.27;;
22068;SDS011;13887;57.196;-2.100;2022-10-04T18:01:29;12.83;;;12.43;;
22068;SDS011;13887;57.196;-2.100;2022-10-04T18:09:29;12.90;;;12.50;;
22068;SDS011;13887;57.196;-2.100;2022-10-04T18:12:11;12.60;;;12.20;;
22068;SDS011;13887;57.196;-2.100;2022-10-04T18:15:06;12.40;;;12.00;;
22068;SDS011;13887;57.196;-2.100;2022-10-04T18:20:57;12.83;;;12.43;;
22068;SDS011;13887;57.196;-2.100;2022-10-04T18:23:39;12.30;;;11.90;;
22068;SDS011;13887;57.196;-2.100;2022-10-04T18:26:39;12.10;;;11.70;;
22068;SDS011;13887;57.196;-2.100;2022-10-04T18:29:39;11.80;;;11.40;;
22068;SDS011;13887;57.196;-2.100;2022-10-04T18:32:15;12.17;;;11.77;;
22068;SDS011;13887;57.196;-2.100;2022-10-04T18:34:45;12.23;;;11.83;;
22068;SDS011;13887;57.196;-2.100;2022-10-04T18:37:24;12.40;;;12.00;;
22068;SDS011;13887;57.196;-2.100;2022-10-04T18:40:09;12.83;;;12.43;;
22068;SDS011;13887;57.196;-2.100;2022-10-04T18:42:41;12.60;;;12.20;;
22068;SDS011;13887;57.196;-2.100;2022-10-04T18:45:20;12.00;;;11.60;;
22068;SDS011;13887;57.196;-2.100;2022-10-04T18:47:49;12.17;;;11.77;;
22068;SDS011;13887;57.196;-2.100;2022-10-04T18:53:09;11.97;;;11.57;;
22068;SDS011;13887;57.196;-2.100;2022-10-04T19:04:31;12.30;;;11.90;;
22068;SDS011;13887;57.196;-2.100;2022-10-04T19:26:49;12.93;;;12.53;;
22068;SDS011;13887;57.196;-2.100;2022-10-04T19:32:32;12.40;;;12.00;;
22068;SDS011;13887;57.196;-2.100;2022-10-04T19:35:13;12.50;;;12.10;;
22068;SDS011;13887;57.196;-2.100;2022-10-04T19:41:01;12.67;;;12.27;;
22068;SDS011;13887;57.196;-2.100;2022-10-04T19:49:00;12.30;;;11.90;;
22068;SDS011;13887;57.196;-2.100;2022-10-04T19:54:02;12.63;;;12.23;;
22068;SDS011;13887;57.196;-2.100;2022-10-04T19:56:44;12.87;;;12.47;;
22068;SDS011;13887;57.196;-2.100;2022-10-04T19:59:18;11.90;;;11.50;;
22068;SDS011;13887;57.196;-2.100;2022-10-04T20:01:56;12.60;;;12.20;;
22068;SDS011;13887;57.196;-2.100;2022-10-04T20:04:23;12.30;;;11.90;;
22068;SDS011;13887;57.196;-2.100;2022-10-04T20:07:01;12.37;;;11.97;;
22068;SDS011;13887;57.196;-2.100;2022-10-04T20:10:09;12.17;;;11.77;;
22068;SDS011;13887;57.196;-2.100;2022-10-04T20:18:49;12.60;;;12.20;;
22068;SDS011;13887;57.196;-2.100;2022-10-04T20:26:05;12.40;;;12.00;;
22068;SDS011;13887;57.196;-2.100;2022-10-04T20:28:37;12.17;;;11.77;;
22068;SDS011;13887;57.196;-2.100;2022-10-04T20:31:11;11.50;;;11.10;;
22068;SDS011;13887;57.196;-2.100;2022-10-04T20:37:01;11.47;;;11.07;;
22068;SDS011;13887;57.196;-2.100;2022-10-04T20:50:13;10.73;;;10.43;;
22068;SDS011;13887;57.196;-2.100;2022-10-04T20:53:02;10.93;;;10.63;;
22068;SDS011;13887;57.196;-2.100;2022-10-04T20:55:35;11.20;;;10.90;;
22068;SDS011;13887;57.196;-2.100;2022-10-04T20:58:20;10.87;;;10.57;;
22068;SDS011;13887;57.196;-2.100;2022-10-04T21:00:51;11.03;;;10.73;;
22068;SDS011;13887;57.196;-2.100;2022-10-04T21:03:22;11.20;;;10.90;;
22068;SDS011;13887;57.196;-2.100;2022-10-04T21:06:09;10.97;;;10.67;;
22068;SDS011;13887;57.196;-2.100;2022-10-04T21:08:38;11.50;;;11.10;;
22068;SDS011;13887;57.196;-2.100;2022-10-04T21:11:11;11.50;;;11.10;;
22068;SDS011;13887;57.196;-2.100;2022-10-04T21:13:52;11.03;;;10.73;;
22068;SDS011;13887;57.196;-2.100;2022-10-04T21:21:59;10.80;;;10.50;;
22068;SDS011;13887;57.196;-2.100;2022-10-04T21:27:01;10.57;;;10.27;;
22068;SDS011;13887;57.196;-2.100;2022-10-04T21:29:30;10.70;;;10.40;;
22068;SDS011;13887;57.196;-2.100;2022-10-04T21:31:57;11.03;;;10.73;;
22068;SDS011;13887;57.196;-2.100;2022-10-04T21:34:25;11.10;;;10.80;;
22068;SDS011;13887;57.196;-2.100;2022-10-04T21:37:12;10.30;;;10.00;;
22068;SDS011;13887;57.196;-2.100;2022-10-04T21:39:41;11.17;;;10.87;;
22068;SDS011;13887;57.196;-2.100;2022-10-04T21:42:08;11.17;;;10.87;;
22068;SDS011;13887;57.196;-2.100;2022-10-04T21:44:36;11.37;;;10.97;;
22068;SDS011;13887;57.196;-2.100;2022-10-04T21:47:03;11.30;;;10.93;;
22068;SDS011;13887;57.196;-2.100;2022-10-04T21:49:30;11.30;;;10.97;;
22068;SDS011;13887;57.196;-2.100;2022-10-04T21:51:56;11.53;;;11.13;;
22068;SDS011;13887;57.196;-2.100;2022-10-04T21:54:23;11.57;;;11.17;;
22068;SDS011;13887;57.196;-2.100;2022-10-04T21:56:50;11.53;;;11.13;;
22068;SDS011;13887;57.196;-2.100;2022-10-04T21:59:19;11.23;;;10.90;;
22068;SDS011;13887;57.196;-2.100;2022-10-04T22:01:46;11.57;;;11.17;;
22068;SDS011;13887;57.196;-2.100;2022-10-04T22:04:13;11.93;;;11.53;;
22068;SDS011;13887;57.196;-2.100;2022-10-04T22:06:40;12.20;;;11.80;;
22068;SDS011;13887;57.196;-2.100;2022-10-04T22:09:07;12.10;;;11.70;;
22068;SDS011;13887;57.196;-2.100;2022-10-04T22:11:35;12.23;;;11.83;;
22068;SDS011;13887;57.196;-2.100;2022-10-04T22:14:02;12.10;;;11.70;;
22068;SDS011;13887;57.196;-2.100;2022-10-04T22:16:29;12.20;;;11.80;;
22068;SDS011;13887;57.196;-2.100;2022-10-04T22:18:56;12.70;;;12.30;;
22068;SDS011;13887;57.196;-2.100;2022-10-04T22:21:23;12.50;;;12.10;;
22068;SDS011;13887;57.196;-2.100;2022-10-04T22:23:49;12.67;;;12.27;;
22068;SDS011;13887;57.196;-2.100;2022-10-04T22:26:18;12.60;;;12.20;;
22068;SDS011;13887;57.196;-2.100;2022-10-04T22:28:47;12.37;;;11.97;;
22068;SDS011;13887;57.196;-2.100;2022-10-04T22:31:20;12.47;;;12.07;;
22068;SDS011;13887;57.196;-2.100;2022-10-04T22:33:51;12.63;;;12.23;;
22068;SDS011;13887;57.196;-2.100;2022-10-04T22:36:37;12.70;;;12.30;;
22068;SDS011;13887;57.196;-2.100;2022-10-04T22:46:43;12.03;;;11.63;;
22068;SDS011;13887;57.196;-2.100;2022-10-04T22:49:18;12.10;;;11.70;;
22068;SDS011;13887;57.196;-2.100;2022-10-04T22:51:47;12.30;;;11.90;;
22068;SDS011;13887;57.196;-2.100;2022-10-04T22:54:16;12.20;;;11.80;;
22068;SDS011;13887;57.196;-2.100;2022-10-04T22:56:45;12.20;;;11.80;;
22068;SDS011;13887;57.196;-2.100;2022-10-04T22:59:14;11.93;;;11.53;;
22068;SDS011;13887;57.196;-2.100;2022-10-04T23:01:42;11.80;;;11.40;;
22068;SDS011;13887;57.196;-2.100;2022-10-04T23:04:14;11.97;;;11.57;;
22068;SDS011;13887;57.196;-2.100;2022-10-04T23:06:46;11.70;;;11.30;;
22068;SDS011;13887;57.196;-2.100;2022-10-04T23:09:14;11.97;;;11.57;;
22068;SDS011;13887;57.196;-2.100;2022-10-04T23:11:42;11.87;;;11.47;;
22068;SDS011;13887;57.196;-2.100;2022-10-04T23:14:09;11.63;;;11.23;;
22068;SDS011;13887;57.196;-2.100;2022-10-04T23:16:36;11.87;;;11.47;;
22068;SDS011;13887;57.196;-2.100;2022-10-04T23:19:16;12.20;;;11.80;;
22068;SDS011;13887;57.196;-2.100;2022-10-04T23:21:46;12.43;;;12.03;;
22068;SDS011;13887;57.196;-2.100;2022-10-04T23:24:15;12.33;;;11.93;;
22068;SDS011;13887;57.196;-2.100;2022-10-04T23:26:45;12.20;;;11.80;;
22068;SDS011;13887;57.196;-2.100;2022-10-04T23:31:49;12.40;;;12.00;;
22068;SDS011;13887;57.196;-2.100;2022-10-04T23:34:18;12.33;;;11.93;;
22068;SDS011;13887;57.196;-2.100;2022-10-04T23:36:48;12.30;;;11.90;;
22068;SDS011;13887;57.196;-2.100;2022-10-04T23:39:21;12.10;;;11.70;;
22068;SDS011;13887;57.196;-2.100;2022-10-04T23:41:50;12.20;;;11.80;;
22068;SDS011;13887;57.196;-2.100;2022-10-04T23:44:23;12.50;;;12.10;;
22068;SDS011;13887;57.196;-2.100;2022-10-04T23:47:04;12.00;;;11.60;;
22068;SDS011;13887;57.196;-2.100;2022-10-04T23:49:39;12.10;;;11.70;;
22068;SDS011;13887;57.196;-2.100;2022-10-04T23:52:09;12.07;;;11.67;;
22068;SDS011;13887;57.196;-2.100;2022-10-04T23:54:44;11.63;;;11.23;;
22068;SDS011;13887;57.196;-2.100;2022-10-04T23:57:14;12.10;;;11.70;;
22068;SDS011;13887;57.196;-2.100;2022-10-04T23:59:46;12.30;;;11.90;;
